createdAt,value
2023-04-15T00:01:01.261Z,4.93
2023-04-15T00:06:01.616Z,5.57
2023-04-15T00:08:31.113Z,3.88
2023-04-15T00:11:02.927Z,2.50
2023-04-15T00:13:34.841Z,2.90
2023-04-15T00:16:03.194Z,4.40
2023-04-15T00:18:31.583Z,2.97
2023-04-15T00:21:00.612Z,2.72
2023-04-15T00:23:32.424Z,3.53
2023-04-15T00:26:00.792Z,2.75
2023-04-15T00:28:29.484Z,2.75
2023-04-15T00:30:58.434Z,4.73
2023-04-15T00:33:26.776Z,3.35
2023-04-15T00:35:55.072Z,2.88
2023-04-15T00:38:23.928Z,6.47
2023-04-15T00:40:53.256Z,4.45
2023-04-15T00:43:21.540Z,3.33
2023-04-15T00:45:52.334Z,2.47
2023-04-15T00:48:21.257Z,3.15
2023-04-15T00:50:49.991Z,2.63
2023-04-15T00:53:18.270Z,4.20
2023-04-15T00:55:46.541Z,3.10
2023-04-15T00:58:15.536Z,2.95
2023-04-15T01:00:44.017Z,2.50
2023-04-15T01:03:12.460Z,3.25
2023-04-15T01:05:41.865Z,7.72
2023-04-15T01:08:10.562Z,4.35
2023-04-15T01:10:39.482Z,3.85
2023-04-15T01:13:07.874Z,2.90
2023-04-15T01:15:36.682Z,2.67
2023-04-15T01:18:05.342Z,3.00
2023-04-15T01:20:34.495Z,3.67
2023-04-15T01:23:03.113Z,4.00
2023-04-15T01:25:34.214Z,3.83
2023-04-15T01:28:03.213Z,2.88
2023-04-15T01:30:34.917Z,2.97
2023-04-15T01:33:03.452Z,4.93
2023-04-15T01:35:32.124Z,3.17
2023-04-15T01:38:08.902Z,3.45
2023-04-15T01:40:37.702Z,5.85
2023-04-15T01:43:05.929Z,3.20
2023-04-15T01:45:34.152Z,2.83
2023-04-15T01:48:05.918Z,3.08
2023-04-15T01:50:36.772Z,3.75
2023-04-15T01:53:05.218Z,3.88
2023-04-15T01:55:33.463Z,3.35
2023-04-15T01:58:01.738Z,4.00
2023-04-15T02:00:30.898Z,3.15
2023-04-15T02:03:00.717Z,3.65
2023-04-15T02:05:29.064Z,3.33
2023-04-15T02:07:57.705Z,2.90
2023-04-15T02:10:26.132Z,3.88
2023-04-15T02:12:54.514Z,3.63
2023-04-15T02:15:23.547Z,6.50
2023-04-15T02:17:55.180Z,4.55
2023-04-15T02:20:23.764Z,4.07
2023-04-15T02:22:52.266Z,3.33
2023-04-15T02:25:20.941Z,3.80
2023-04-15T02:27:49.327Z,3.50
2023-04-15T02:30:18.814Z,3.75
2023-04-15T02:32:47.426Z,5.38
2023-04-15T02:35:15.856Z,5.05
2023-04-15T02:37:45.744Z,4.38
2023-04-15T02:40:14.494Z,3.65
2023-04-15T02:42:46.260Z,4.13
2023-04-15T02:45:19.243Z,3.95
2023-04-15T02:47:47.769Z,5.10
2023-04-15T02:50:16.595Z,3.63
2023-04-15T02:52:44.966Z,5.13
2023-04-15T02:55:13.366Z,6.38
2023-04-15T02:57:41.847Z,5.78
2023-04-15T03:00:12.688Z,5.28
2023-04-15T03:02:47.162Z,3.38
2023-04-15T03:05:15.842Z,4.55
2023-04-15T03:07:50.311Z,3.72
2023-04-15T03:10:19.077Z,4.85
2023-04-15T03:12:48.595Z,7.95
2023-04-15T03:15:19.894Z,6.65
2023-04-15T03:17:51.537Z,4.30
2023-04-15T03:20:20.313Z,3.75
2023-04-15T03:22:49.834Z,3.58
2023-04-15T03:25:20.392Z,6.10
2023-04-15T03:27:48.902Z,4.82
2023-04-15T03:30:18.418Z,3.73
2023-04-15T03:32:47.524Z,3.65
2023-04-15T03:35:16.481Z,4.13
2023-04-15T03:37:44.791Z,3.72
2023-04-15T03:40:13.303Z,4.50
2023-04-15T03:42:41.642Z,4.30
2023-04-15T03:45:10.948Z,5.80
2023-04-15T03:47:39.570Z,8.88
2023-04-15T03:50:08.365Z,4.63
2023-04-15T03:52:36.724Z,4.18
2023-04-15T03:55:05.463Z,4.35
2023-04-15T03:57:37.937Z,5.57
2023-04-15T04:00:09.368Z,5.05
2023-04-15T04:02:41.039Z,6.38
2023-04-15T04:05:09.653Z,5.88
2023-04-15T04:07:37.951Z,5.82
2023-04-15T04:10:07.097Z,4.15
2023-04-15T04:12:35.446Z,5.75
2023-04-15T04:15:04.076Z,4.00
2023-04-15T04:17:34.930Z,3.72
2023-04-15T04:20:03.441Z,7.30
2023-04-15T04:22:31.682Z,3.22
2023-04-15T04:25:00.493Z,3.30
2023-04-15T04:27:28.835Z,2.55
2023-04-15T04:29:57.091Z,3.58
2023-04-15T04:32:25.508Z,3.50
2023-04-15T04:34:53.773Z,2.50
2023-04-15T04:37:23.552Z,3.60
2023-04-15T04:39:52.001Z,2.15
2023-04-15T04:42:21.560Z,3.75
2023-04-15T04:44:49.798Z,3.05
2023-04-15T04:47:20.071Z,2.85
2023-04-15T04:49:48.718Z,3.93
2023-04-15T04:52:17.037Z,4.32
2023-04-15T04:54:45.488Z,4.10
2023-04-15T04:57:14.069Z,3.95
2023-04-15T04:59:43.394Z,4.82
2023-04-15T05:02:11.433Z,4.68
2023-04-15T05:04:39.758Z,4.05
2023-04-15T05:07:08.423Z,4.93
2023-04-15T05:09:36.967Z,6.05
2023-04-15T05:12:05.556Z,7.15
2023-04-15T05:14:34.213Z,9.93
2023-04-15T05:17:02.661Z,6.63
2023-04-15T05:19:30.975Z,7.63
2023-04-15T05:21:59.179Z,7.32
2023-04-15T05:24:27.718Z,9.88
2023-04-15T05:26:56.828Z,8.65
2023-04-15T05:29:25.107Z,12.70
2023-04-15T05:31:53.323Z,8.43
2023-04-15T05:34:21.680Z,10.13
2023-04-15T05:36:49.886Z,11.20
2023-04-15T05:39:18.242Z,11.95
2023-04-15T05:41:46.677Z,13.48
2023-04-15T05:44:15.153Z,10.40
2023-04-15T05:46:43.543Z,11.02
2023-04-15T05:49:11.998Z,11.25
2023-04-15T05:51:39.985Z,12.15
2023-04-15T05:54:08.572Z,9.10
2023-04-15T05:56:36.967Z,14.25
2023-04-15T05:59:05.261Z,9.18
2023-04-15T06:01:35.512Z,11.27
2023-04-15T06:04:03.984Z,15.75
2023-04-15T06:06:32.628Z,15.98
2023-04-15T06:09:01.094Z,11.10
2023-04-15T06:11:29.733Z,14.48
2023-04-15T06:13:58.000Z,15.25
2023-04-15T06:16:26.363Z,14.05
2023-04-15T06:18:54.889Z,14.15
2023-04-15T06:21:23.463Z,11.57
2023-04-15T06:23:51.778Z,11.55
2023-04-15T06:26:20.065Z,11.55
2023-04-15T06:28:48.393Z,16.70
2023-04-15T06:31:16.880Z,13.63
2023-04-15T06:33:45.416Z,11.02
2023-04-15T06:36:13.762Z,12.75
2023-04-15T06:38:42.126Z,13.65
2023-04-15T06:41:10.701Z,11.13
2023-04-15T06:43:39.844Z,13.48
2023-04-15T06:46:08.265Z,16.13
2023-04-15T06:48:36.193Z,17.33
2023-04-15T06:51:05.466Z,18.75
2023-04-15T06:53:33.909Z,14.02
2023-04-15T06:56:02.151Z,15.35
2023-04-15T06:58:30.408Z,14.63
2023-04-15T07:00:58.373Z,15.68
2023-04-15T07:03:27.084Z,10.77
2023-04-15T07:05:55.036Z,12.15
2023-04-15T07:08:24.437Z,15.23
2023-04-15T07:10:54.110Z,13.15
2023-04-15T07:13:22.584Z,14.40
2023-04-15T07:15:50.986Z,13.75
2023-04-15T07:18:19.476Z,17.05
2023-04-15T07:20:49.732Z,13.75
2023-04-15T07:23:18.501Z,18.23
2023-04-15T07:25:47.572Z,18.30
2023-04-15T07:28:21.386Z,12.82
2023-04-15T07:30:50.179Z,12.63
2023-04-15T07:33:18.470Z,18.33
2023-04-15T07:35:47.131Z,13.55
2023-04-15T07:38:15.496Z,15.57
2023-04-15T07:40:43.932Z,10.98
2023-04-15T07:43:13.439Z,10.75
2023-04-15T07:45:41.686Z,18.63
2023-04-15T07:48:10.269Z,12.48
2023-04-15T07:50:38.608Z,11.75
2023-04-15T07:53:09.368Z,10.68
2023-04-15T07:55:37.855Z,9.38
2023-04-15T07:58:06.502Z,12.13
2023-04-15T08:00:34.796Z,13.25
2023-04-15T08:03:03.218Z,11.45
2023-04-15T08:05:34.219Z,13.63
2023-04-15T08:08:04.097Z,13.38
2023-04-15T08:10:32.558Z,9.82
2023-04-15T08:13:00.985Z,11.90
2023-04-15T08:15:29.270Z,11.02
2023-04-15T08:17:57.597Z,10.10
2023-04-15T08:20:25.979Z,10.30
2023-04-15T08:23:19.403Z,9.68
2023-04-15T08:25:57.717Z,9.13
2023-04-15T08:28:30.744Z,11.20
2023-04-15T08:30:59.041Z,9.07
2023-04-15T08:33:29.242Z,10.70
2023-04-15T08:35:58.205Z,11.37
2023-04-15T08:38:26.469Z,9.00
2023-04-15T08:41:00.314Z,10.77
2023-04-15T08:43:36.210Z,10.10
2023-04-15T08:46:05.702Z,8.48
2023-04-15T08:48:40.624Z,9.25
2023-04-15T08:51:09.432Z,11.10
2023-04-15T08:53:38.156Z,8.25
2023-04-15T08:56:10.269Z,7.43
2023-04-15T08:58:38.689Z,7.32
2023-04-15T09:01:07.167Z,8.18
2023-04-15T09:03:36.055Z,6.43
2023-04-15T09:06:06.554Z,8.57
2023-04-15T09:08:35.735Z,7.72
2023-04-15T09:11:04.290Z,6.47
2023-04-15T09:13:32.733Z,7.18
2023-04-15T09:16:04.330Z,6.22
2023-04-15T09:18:35.696Z,11.18
2023-04-15T09:24:02.414Z,7.82
2023-04-15T09:26:40.532Z,6.63
2023-04-15T09:29:13.543Z,5.38
2023-04-15T09:31:42.847Z,5.50
2023-04-15T09:34:11.723Z,8.02
2023-04-15T09:37:05.098Z,6.15
2023-04-15T09:39:50.449Z,6.65
2023-04-15T09:42:26.764Z,4.90
2023-04-15T09:45:11.569Z,7.78
2023-04-15T09:47:39.844Z,6.07
2023-04-15T09:50:08.914Z,5.00
2023-04-15T09:52:43.848Z,5.25
2023-04-15T09:55:17.169Z,6.03
2023-04-15T09:57:47.281Z,5.15
2023-04-15T10:00:16.788Z,6.35
2023-04-15T10:02:45.470Z,6.28
2023-04-15T10:05:17.619Z,6.20
2023-04-15T10:07:46.600Z,6.10
2023-04-15T10:10:15.447Z,4.93
2023-04-15T10:12:45.482Z,4.57
2023-04-15T10:15:17.397Z,6.35
2023-04-15T10:17:46.257Z,4.82
2023-04-15T10:20:17.708Z,4.97
2023-04-15T10:22:47.278Z,4.28
2023-04-15T10:25:17.456Z,5.90
2023-04-15T10:27:48.737Z,4.97
2023-04-15T10:30:18.726Z,5.50
2023-04-15T10:32:53.361Z,6.03
2023-04-15T10:35:22.289Z,5.05
2023-04-15T10:37:50.724Z,5.75
2023-04-15T10:40:27.313Z,4.65
2023-04-15T10:42:59.979Z,3.20
2023-04-15T10:45:39.515Z,3.97
2023-04-15T10:48:09.074Z,4.13
2023-04-15T10:50:37.866Z,3.95
2023-04-15T10:53:06.336Z,4.65
2023-04-15T10:55:35.242Z,5.28
2023-04-15T10:58:03.940Z,5.05
2023-04-15T11:00:35.169Z,3.72
2023-04-15T11:03:10.467Z,3.53
2023-04-15T11:05:54.668Z,3.78
2023-04-15T11:08:59.127Z,9.32
2023-04-15T11:12:08.061Z,5.63
2023-04-15T11:14:41.981Z,3.13
2023-04-15T11:17:10.634Z,3.20
2023-04-15T11:19:39.313Z,4.00
2023-04-15T11:22:10.568Z,5.50
2023-04-15T11:27:25.718Z,3.58
2023-04-15T11:29:54.085Z,3.28
2023-04-15T11:32:22.902Z,3.58
2023-04-15T11:34:52.444Z,3.75
2023-04-15T11:37:30.314Z,3.83
2023-04-15T11:39:58.850Z,2.97
2023-04-15T11:42:36.240Z,3.40
2023-04-15T11:45:20.719Z,11.93
2023-04-15T11:47:48.960Z,4.70
2023-04-15T11:50:23.023Z,2.85
2023-04-15T11:53:00.121Z,4.05
2023-04-15T11:55:28.907Z,2.60
2023-04-15T11:58:16.860Z,2.53
2023-04-15T12:00:54.728Z,2.38
2023-04-15T12:03:26.782Z,3.33
2023-04-15T12:06:20.896Z,3.03
2023-04-15T12:09:16.651Z,3.58
2023-04-15T12:11:55.975Z,3.17
2023-04-15T12:14:29.508Z,2.45
2023-04-15T12:17:06.857Z,7.65
2023-04-15T12:19:43.148Z,2.78
2023-04-15T12:22:16.645Z,4.63
2023-04-15T12:24:48.143Z,4.22
2023-04-15T12:27:17.670Z,4.35
2023-04-15T12:29:46.182Z,2.10
2023-04-15T12:32:20.883Z,3.05
2023-04-15T12:34:54.665Z,2.33
2023-04-15T12:37:23.056Z,2.47
2023-04-15T12:39:51.727Z,2.92
2023-04-15T12:42:20.483Z,2.17
2023-04-15T12:44:48.820Z,2.13
2023-04-15T12:47:17.126Z,2.08
2023-04-15T12:49:45.635Z,2.45
2023-04-15T12:52:13.965Z,2.60
2023-04-15T12:54:43.748Z,3.17
2023-04-15T12:57:12.290Z,2.40
2023-04-15T12:59:40.568Z,5.97
2023-04-15T13:02:08.975Z,2.97
2023-04-15T13:04:37.385Z,2.42
2023-04-15T13:07:05.774Z,2.85
2023-04-15T13:09:33.974Z,2.85
2023-04-15T13:12:05.275Z,2.50
2023-04-15T13:17:02.681Z,3.33
2023-04-15T13:19:30.876Z,2.78
2023-04-15T13:21:59.084Z,3.13
2023-04-15T13:24:32.834Z,3.92
2023-04-15T13:27:01.352Z,11.90
2023-04-15T13:29:29.702Z,3.10
2023-04-15T13:32:01.535Z,7.53
2023-04-15T13:34:30.085Z,3.25
2023-04-15T13:36:58.325Z,3.00
2023-04-15T13:39:26.647Z,5.70
2023-04-15T13:41:54.828Z,5.45
2023-04-15T13:44:23.065Z,5.53
2023-04-15T13:46:52.080Z,4.57
2023-04-15T13:49:20.348Z,2.97
2023-04-15T13:51:48.585Z,3.65
2023-04-15T13:54:16.897Z,3.85
2023-04-15T13:56:45.365Z,3.22
2023-04-15T13:59:13.930Z,5.65
2023-04-15T14:01:43.772Z,3.67
2023-04-15T14:04:12.417Z,6.68
2023-04-15T14:06:41.107Z,5.63
2023-04-15T14:09:10.049Z,4.55
2023-04-15T14:11:41.007Z,7.53
2023-04-15T14:14:09.450Z,5.38
2023-04-15T14:16:37.772Z,6.88
2023-04-15T14:19:06.340Z,4.28
2023-04-15T14:21:34.812Z,3.50
2023-04-15T14:24:03.043Z,3.00
2023-04-15T14:26:31.272Z,3.65
2023-04-15T14:28:59.790Z,7.78
2023-04-15T14:31:28.247Z,5.57
2023-04-15T14:33:56.587Z,3.70
2023-04-15T14:36:24.865Z,8.32
2023-04-15T14:38:53.062Z,3.88
2023-04-15T14:41:22.356Z,4.70
2023-04-15T14:43:50.797Z,8.57
2023-04-15T14:46:19.090Z,7.15
2023-04-15T14:48:47.473Z,4.07
2023-04-15T14:51:16.460Z,4.65
2023-04-15T14:53:45.731Z,4.95
2023-04-15T14:56:14.011Z,5.82
2023-04-15T14:58:42.242Z,6.97
2023-04-15T15:01:11.103Z,5.47
2023-04-15T15:03:39.786Z,6.10
2023-04-15T15:06:08.970Z,4.50
2023-04-15T15:08:37.229Z,7.38
2023-04-15T15:11:05.681Z,6.90
2023-04-15T15:13:34.362Z,7.47
2023-04-15T15:16:02.716Z,7.43
2023-04-15T15:18:31.348Z,7.03
2023-04-15T15:21:00.038Z,13.55
2023-04-15T15:23:28.276Z,5.90
2023-04-15T15:25:57.314Z,16.10
2023-04-15T15:28:25.564Z,13.63
2023-04-15T15:30:54.044Z,8.95
2023-04-15T15:33:22.464Z,9.55
2023-04-15T15:35:51.154Z,7.68
2023-04-15T15:38:19.457Z,20.92
2023-04-15T15:40:47.699Z,24.70
2023-04-15T15:43:15.933Z,11.43
2023-04-15T15:45:44.183Z,9.43
2023-04-15T15:48:12.751Z,13.10
2023-04-15T15:50:41.187Z,8.15
2023-04-15T15:53:11.328Z,12.27
2023-04-15T15:55:39.573Z,8.38
2023-04-15T15:58:07.784Z,8.35
2023-04-15T16:00:36.712Z,8.23
2023-04-15T16:03:07.578Z,9.18
2023-04-15T16:08:06.107Z,8.32
2023-04-15T16:10:34.428Z,9.30
2023-04-15T16:13:03.017Z,8.80
2023-04-15T16:15:31.752Z,10.60
2023-04-15T16:18:00.797Z,7.45
2023-04-15T16:20:30.183Z,9.20
2023-04-15T16:22:59.138Z,8.80
2023-04-15T16:25:27.848Z,9.73
2023-04-15T16:28:05.590Z,10.00
2023-04-15T16:30:41.397Z,8.30
2023-04-15T16:33:10.317Z,11.02
2023-04-15T16:35:39.953Z,10.63
2023-04-15T16:38:08.492Z,16.88
2023-04-15T16:40:39.921Z,10.65
2023-04-15T16:43:11.116Z,11.75
2023-04-15T16:45:39.224Z,11.05
2023-04-15T16:48:07.413Z,10.55
2023-04-15T16:50:37.360Z,11.88
2023-04-15T16:53:05.997Z,13.68
2023-04-15T16:55:34.247Z,10.57
2023-04-15T16:58:04.618Z,17.05
2023-04-15T17:03:06.048Z,10.95
2023-04-15T17:05:34.921Z,15.52
2023-04-15T17:08:03.855Z,12.68
2023-04-15T17:10:35.284Z,9.68
2023-04-15T17:13:03.571Z,14.48
2023-04-15T17:15:31.890Z,11.60
2023-04-15T17:18:00.261Z,12.82
2023-04-15T17:20:28.648Z,10.30
2023-04-15T17:22:57.623Z,17.20
2023-04-15T17:25:25.881Z,18.48
2023-04-15T17:27:54.280Z,13.57
2023-04-15T17:30:23.032Z,11.80
2023-04-15T17:32:52.604Z,15.50
2023-04-15T17:35:21.097Z,12.90
2023-04-15T17:37:49.650Z,16.55
2023-04-15T17:40:20.386Z,14.50
2023-04-15T17:42:48.905Z,12.13
2023-04-15T17:45:17.645Z,14.02
2023-04-15T17:47:46.027Z,22.08
2023-04-15T17:50:14.438Z,14.73
2023-04-15T17:52:42.770Z,15.45
2023-04-15T17:55:11.250Z,16.35
2023-04-15T17:57:39.719Z,14.95
2023-04-15T18:00:10.294Z,10.75
2023-04-15T18:02:42.025Z,19.42
2023-04-15T18:05:10.620Z,16.58
2023-04-15T18:07:39.002Z,15.95
2023-04-15T18:10:09.579Z,21.63
2023-04-15T18:12:38.134Z,17.92
2023-04-15T18:15:09.416Z,14.30
2023-04-15T18:20:15.414Z,21.10
2023-04-15T18:22:46.804Z,14.70
2023-04-15T18:25:15.134Z,17.08
2023-04-15T18:27:43.730Z,21.23
2023-04-15T18:32:44.753Z,14.93
2023-04-15T18:35:13.026Z,21.77
2023-04-15T18:37:41.339Z,20.88
2023-04-15T18:40:10.439Z,22.77
2023-04-15T18:42:38.975Z,22.42
2023-04-15T18:45:07.904Z,16.70
2023-04-15T18:47:36.241Z,22.58
2023-04-15T18:50:04.853Z,17.63
2023-04-15T18:52:33.761Z,22.65
2023-04-15T18:55:03.336Z,19.70
2023-04-15T18:57:35.137Z,23.63
2023-04-15T19:00:06.395Z,24.50
2023-04-15T19:02:34.733Z,20.98
2023-04-15T19:05:04.451Z,22.05
2023-04-15T19:07:32.960Z,28.95
2023-04-15T19:10:02.160Z,22.20
2023-04-15T19:12:30.391Z,24.95
2023-04-15T19:14:58.819Z,30.70
2023-04-15T19:17:27.085Z,32.05
2023-04-15T19:19:57.893Z,27.90
2023-04-15T19:22:26.596Z,22.75
2023-04-15T19:24:54.913Z,23.52
2023-04-15T19:27:24.320Z,25.55
2023-04-15T19:29:52.532Z,25.60
2023-04-15T19:32:21.317Z,37.25
2023-04-15T19:34:49.724Z,36.15
2023-04-15T19:37:18.553Z,26.52
2023-04-15T19:39:49.288Z,35.88
2023-04-15T19:42:17.993Z,29.77
2023-04-15T19:44:46.348Z,31.85
2023-04-15T19:47:14.694Z,29.77
2023-04-15T19:49:43.103Z,39.95
2023-04-15T19:52:11.480Z,34.88
2023-04-15T19:54:39.754Z,30.30
2023-04-15T19:57:07.963Z,33.42
2023-04-15T19:59:37.618Z,40.10
2023-04-15T20:02:06.149Z,28.08
2023-04-15T20:04:35.223Z,35.53
2023-04-15T20:07:03.725Z,36.75
2023-04-15T20:09:31.901Z,31.15
2023-04-15T20:12:46.228Z,30.02
2023-04-15T20:14:49.178Z,31.38
2023-04-15T20:17:17.466Z,34.33
2023-04-15T20:19:45.774Z,35.97
2023-04-15T20:22:14.070Z,36.55
2023-04-15T20:24:43.482Z,31.45
2023-04-15T20:27:11.879Z,33.25
2023-04-15T20:29:46.212Z,34.97
2023-04-15T20:32:14.544Z,36.60
2023-04-15T20:34:44.027Z,33.80
2023-04-15T20:37:12.661Z,32.28
2023-04-15T20:39:41.983Z,35.42
2023-04-15T20:42:10.516Z,32.05
2023-04-15T20:44:40.597Z,36.38
2023-04-15T20:47:10.136Z,35.13
2023-04-15T20:49:39.756Z,32.17
2023-04-15T20:52:09.383Z,34.75
2023-04-15T20:54:37.771Z,32.75
2023-04-15T20:57:08.781Z,34.00
2023-04-15T20:59:37.174Z,27.80
2023-04-15T21:02:05.553Z,31.65
2023-04-15T21:04:34.896Z,31.17
2023-04-15T21:07:03.182Z,34.58
2023-04-15T21:09:31.580Z,48.80
2023-04-15T21:12:01.870Z,31.27
2023-04-15T21:14:30.912Z,29.60
2023-04-15T21:16:59.245Z,37.47
2023-04-15T21:19:27.682Z,30.05
2023-04-15T21:21:55.701Z,32.67
2023-04-15T21:24:25.382Z,35.40
2023-04-15T21:26:53.343Z,37.25
2023-04-15T21:29:21.703Z,37.95
2023-04-15T21:31:50.502Z,40.80
2023-04-15T21:34:18.985Z,30.15
2023-04-15T21:36:47.227Z,33.28
2023-04-15T21:39:15.666Z,33.20
2023-04-15T21:41:43.918Z,28.00
2023-04-15T21:44:14.438Z,30.13
2023-04-15T21:46:46.116Z,30.35
2023-04-15T21:49:14.697Z,42.97
2023-04-15T21:51:42.923Z,32.45
2023-04-15T21:54:11.488Z,32.30
2023-04-15T21:56:39.792Z,35.25
2023-04-15T21:59:08.145Z,31.85
2023-04-15T22:01:36.541Z,28.95
2023-04-15T22:04:07.211Z,31.45
2023-04-15T22:06:36.008Z,32.08
2023-04-15T22:09:04.638Z,28.73
2023-04-15T22:11:33.053Z,30.38
2023-04-15T22:14:01.325Z,28.92
2023-04-15T22:16:29.611Z,34.50
2023-04-15T22:18:59.863Z,30.33
2023-04-15T22:21:28.234Z,33.47
2023-04-15T22:24:34.455Z,31.45
2023-04-15T22:26:44.747Z,33.70
2023-04-15T22:29:13.023Z,31.33
2023-04-15T22:31:41.814Z,33.08
2023-04-15T22:34:10.073Z,38.03
2023-04-15T22:36:38.342Z,28.92
2023-04-15T22:39:06.871Z,29.70
2023-04-15T22:41:35.366Z,29.08
2023-04-15T22:44:03.742Z,30.88
2023-04-15T22:46:32.076Z,31.13
2023-04-15T22:49:00.382Z,32.45
2023-04-15T22:51:28.720Z,34.53
2023-04-15T22:53:57.026Z,38.53
2023-04-15T22:56:26.996Z,30.80
2023-04-15T22:58:55.389Z,34.88
2023-04-15T23:01:23.694Z,33.75
2023-04-15T23:03:57.202Z,35.25
2023-04-15T23:06:32.368Z,32.30
2023-04-15T23:09:00.866Z,32.70
2023-04-15T23:11:29.093Z,31.23
2023-04-15T23:13:57.338Z,29.75
2023-04-15T23:16:26.062Z,30.95
2023-04-15T23:18:54.472Z,30.17
2023-04-15T23:21:25.491Z,41.72
2023-04-15T23:23:54.527Z,28.83
2023-04-15T23:26:22.940Z,30.23
2023-04-15T23:28:51.432Z,31.30
2023-04-15T23:31:19.668Z,34.65
2023-04-15T23:33:47.964Z,31.35
2023-04-15T23:36:16.189Z,32.70
2023-04-15T23:38:44.502Z,28.75
2023-04-15T23:41:13.028Z,29.17
2023-04-15T23:43:41.253Z,26.00
2023-04-15T23:46:09.526Z,33.45
2023-04-15T23:48:38.319Z,26.33
2023-04-15T23:51:06.598Z,38.10
2023-04-15T23:53:34.895Z,28.40
2023-04-15T23:56:03.395Z,28.05
2023-04-15T23:58:33.468Z,33.58
